Skip to Main Content
SEARCH:
Location Air RH Dwp Precip Type Wind Speed Wind Gust Direction Pavement Temperature Date/Time
Hatem Bridge US 40 E/B 24 38 2 None 27 mph 32 mph NW 23 - 23 12/13/2017 9:43:00 AM
I-270 at I-370 23 39 2 None Calm 7 mph NW 19 - 30 12/13/2017 9:40:00 AM
I-270 at MD-109 23 40 3 None 15 mph 33 mph W 26 - 32 12/13/2017 9:40:00 AM
I-495 at American Legion Bridge 24 37 1 None 13 mph 30 mph W 32 - 33 12/13/2017 9:40:00 AM
I-68 at MD-219 10 79 5 None 19 mph 39 mph W 11 - 17 12/13/2017 9:40:00 AM
I-68 at Savage Mt 12 66 3 None 4 mph 16 mph W 18 - 18 12/13/2017 9:40:00 AM
I-68 at Sideling Hill 20 52 5 None 9 mph 25 mph S 29 - 30 12/13/2017 9:40:00 AM
I-68 at WV Line 16 63 5 None 7 mph 16 mph SW 17 - 23 12/13/2017 9:40:00 AM
I-695 at I-83 23 41 4 None 7 mph 17 mph NW 25 - 31 12/13/2017 9:40:00 AM
I-70 at Fred-Wash Co. - - - No Data Available - - No Data Available -
I-70 at I-695 22 42 3 None 14 mph 25 mph W 25 - 33 12/13/2017 9:40:00 AM
I-70 at I-81 22 42 3 None 14 mph 24 mph W - 12/13/2017 9:40:00 AM
I-70 at MD-27 22 45 4 None 6 mph 15 mph W 24 - 28 12/13/2017 9:40:00 AM
I-70 at MD-32 21 43 2 None 10 mph 25 mph W 25 - 30 12/13/2017 9:40:00 AM
I-83 at MD-137 22 46 5 None 9 mph 20 mph SW 30 - 30 12/13/2017 9:40:00 AM
I-95 at I-695 NE 24 40 3 None 13 mph 25 mph W 25 - 34 12/13/2017 9:43:00 AM
I-95 at Patuxent River 25 37 2 None 5 mph 13 mph NW 28 - 30 12/13/2017 9:40:00 AM
I-95 at Tydings Bridge 26 45 8 None 14 mph 32 mph SW - 12/13/2017 9:40:00 AM
I-95/495 at I-295 26 40 5 None 10 mph 23 mph NW 30 - 30 12/13/2017 9:40:00 AM
I-97 at MD-100 24 37 1 None 22 mph 38 mph NW 27 - 31 12/13/2017 9:40:00 AM
I-97 at MD-32 23 37 1 None 12 mph 24 mph NW 28 - 32 12/13/2017 9:40:00 AM
MD 20 at MD 21 24 43 5 None 14 mph 28 mph W 33 - 33 12/13/2017 9:40:00 AM
MD 231 at Patuxent River 24 37 2 None 19 mph 27 mph NW 30 - 31 12/13/2017 9:40:00 AM
MD 260 at Cox Rd 24 37 2 None 6 mph 18 mph W 35 - 35 12/13/2017 9:40:00 AM
MD-135 at Salt Dome 11 86 8 None Calm 13 mph SW 18 - 18 12/13/2017 9:40:00 AM
MD-140 at MD-97 20 46 3 None 14 mph 28 mph W 26 - 26 12/13/2017 9:40:00 AM
MD-200 EB at Bonifant Rd 23 39 2 None 11 mph 22 mph NW 23 - 28 12/13/2017 9:43:00 AM
MD-200 WB at Muncaster Mill Rd 23 38 1 None 9 mph 22 mph W 27 - 28 12/13/2017 9:43:00 AM
MD-213 at Sassafras River 25 54 11 None 18 mph 38 mph W 30 - 30 12/13/2017 9:40:00 AM
MD-24 at Rock St Park 25 49 8 None Calm 8 mph E 30 - 30 12/13/2017 9:40:00 AM
MD-30 at PA Line 19 53 5 None 21 mph 36 mph W 24 - 24 12/13/2017 9:40:00 AM
MD-301 at MD-305 23 44 5 None 21 mph 32 mph W 31 - 32 12/13/2017 9:40:00 AM
MD-33 at Knapps Narrows Drawbridge 24 46 6 None 19 mph 32 mph W 34 - 34 12/13/2017 9:40:00 AM
MD-344 at MD-224 25 40 4 None 7 mph 12 mph W 29 - 29 12/13/2017 9:40:00 AM
MD-4 at Patuxent River 27 44 8 None - - No Data Available 27 - 34 12/13/2017 9:40:00 AM
MD-404 at Choptank River 25 41 5 None 11 mph 24 mph W 31 - 31 12/13/2017 9:40:00 AM
MD-43 at MD-150 25 41 5 None 14 mph 26 mph W 28 - 33 12/13/2017 9:40:00 AM
MD-51 at Oldtown Salt Dome 22 44 4 None 13 mph 25 mph W 33 - 33 12/13/2017 9:40:00 AM
MD-64 at MD-418 21 45 3 None 16 mph 23 mph W 26 - 29 12/13/2017 9:40:00 AM
US-1 at Baltimore / Harford Co. Line 24 41 4 None 8 mph 17 mph N 24 - 27 12/13/2017 9:40:00 AM
US-1 at Conowingo Dam 27 50 11 None 10 mph 25 mph W - 12/13/2017 9:40:00 AM
US-13 at US-113 25 43 6 None 14 mph 34 mph W 35 - 36 12/13/2017 9:40:00 AM
US-13 at US-50 - - - No Data Available - - No Data Available -
US-15 at MD-140 23 40 2 None 12 mph 25 mph NW 21 - 31 12/13/2017 9:40:00 AM
US-301 at MD-5 25 38 3 None 11 mph 24 mph W 28 - 31 12/13/2017 9:40:00 AM
US-301 at Potomac 28 49 11 None 20 mph 27 mph NW 30 - 32 12/13/2017 9:40:00 AM
US-301 on HWN Bridge - - - Sleet - - No Data Available 24 - 24 12/13/2017 9:43:00 AM
US-340 at MD-180 23 41 2 None 11 mph 22 mph NW 24 - 30 12/13/2017 9:40:00 AM
US-50 at Choptank 25 56 12 None 26 mph 42 mph W 30 - 33 12/13/2017 9:40:00 AM
US-50 at I-95 25 35 1 None 11 mph 24 mph W 27 - 30 12/13/2017 9:40:00 AM
US-50 at MD-2 24 40 4 None 8 mph 19 mph W 26 - 30 12/13/2017 9:40:00 AM
US-50 at MD-331 25 43 5 None 15 mph 26 mph W 30 - 36 12/13/2017 9:40:00 AM
US-50 at OC Drawbridge 24 42 5 None 21 mph 35 mph W 35 - 35 12/13/2017 9:40:00 AM
US-50 at Table Rock Rd 10 93 8 Snow 8 mph 15 mph W 18 - 18 12/13/2017 9:40:00 AM
US-50 Kent Narrow Bridge 25 41 4 None 21 mph 34 mph W 29 - 33 12/13/2017 9:40:00 AM
WPL Pier 31 22 38 1 Snow 28 mph 36 mph W 26 - 26 12/13/2017 9:43:00 AM
Location Air RH Dwp Precip Type Wind Speed Wind Gust Direction Pavement Temperature Date/Time